Time,TemperatureF,DewpointF,PressureIn,WindDirection,WindDirectionDegrees,WindSpeedMPH,WindSpeedGustMPH,Humidity,HourlyPrecipIn,Conditions,Clouds,dailyrainin,SolarRadiationWatts/m^2,SoftwareType,DateUTC
2013-03-20 00:05:00,23.7,21.2,30.10,West,275,0.0,5.0,90,0.00,,,0.00,0,Wunderground v.1.15,2013-03-20 06:05:00,
2013-03-20 00:11:00,23.6,20.8,30.09,West,275,0.0,5.0,89,0.00,,,0.00,0,Wunderground v.1.15,2013-03-20 06:11:00,
2013-03-20 00:17:00,23.5,20.7,30.09,West,275,0.0,5.0,89,0.00,,,0.00,0,Wunderground v.1.15,2013-03-20 06:17:00,
2013-03-20 00:22:00,23.5,21.0,30.09,West,275,0.0,5.0,90,0.00,,,0.00,0,Wunderground v.1.15,2013-03-20 06:22:00,
2013-03-20 00:28:00,23.6,21.1,30.08,West,275,0.0,5.0,90,0.00,,,0.00,0,Wunderground v.1.15,2013-03-20 06:28:00,
2013-03-20 00:33:00,23.5,21.0,30.08,West,275,0.0,5.0,90,0.00,,,0.00,0,Wunderground v.1.15,2013-03-20 06:33:00,
2013-03-20 00:39:00,23.6,21.1,30.07,West,275,0.0,5.0,90,0.00,,,0.00,0,Wunderground v.1.15,2013-03-20 06:39:00,
2013-03-20 00:44:00,23.6,21.1,30.07,West,275,0.0,5.0,90,0.00,,,0.00,0,Wunderground v.1.15,2013-03-20 06:44:00,
2013-03-20 00:49:00,23.7,21.2,30.07,West,275,0.0,5.0,90,0.00,,,0.00,0,Wunderground v.1.15,2013-03-20 06:49:00,
2013-03-20 00:55:00,23.8,21.3,30.06,West,275,0.0,5.0,90,0.00,,,0.00,0,Wunderground v.1.15,2013-03-20 06:55:00,
2013-03-20 01:02:00,23.9,21.4,30.06,West,275,0.0,5.0,90,0.00,,,0.00,0,Wunderground v.1.15,2013-03-20 07:02:00,
2013-03-20 01:08:00,24.0,21.5,30.05,West,275,0.0,5.0,90,0.00,,,0.00,0,Wunderground v.1.15,2013-03-20 07:08:00,
2013-03-20 01:13:00,24.1,21.6,30.05,West,275,0.0,5.0,90,0.00,,,0.00,0,Wunderground v.1.15,2013-03-20 07:13:00,
2013-03-20 01:19:00,24.2,21.7,30.05,West,275,0.0,5.0,90,0.00,,,0.00,0,Wunderground v.1.15,2013-03-20 07:19:00,
2013-03-20 01:25:00,24.3,21.8,30.04,West,275,0.0,5.0,90,0.00,,,0.00,0,Wunderground v.1.15,2013-03-20 07:25:00,
2013-03-20 01:32:00,24.4,21.9,30.04,West,275,0.0,5.0,90,0.00,,,0.00,0,Wunderground v.1.15,2013-03-20 07:32:00,
2013-03-20 01:37:00,24.3,21.5,30.04,West,275,0.0,5.0,89,0.00,,,0.00,0,Wunderground v.1.15,2013-03-20 07:37:00,
2013-03-20 01:43:00,24.2,21.4,30.04,West,275,0.0,5.0,89,0.00,,,0.00,0,Wunderground v.1.15,2013-03-20 07:43:00,
2013-03-20 01:49:00,24.1,21.3,30.04,West,275,0.0,5.0,89,0.00,,,0.00,0,Wunderground v.1.15,2013-03-20 07:49:00,
2013-03-20 01:55:00,24.0,21.2,30.04,West,275,0.0,5.0,89,0.00,,,0.00,0,Wunderground v.1.15,2013-03-20 07:55:00,
2013-03-20 02:00:00,23.9,21.1,30.03,West,275,0.0,5.0,89,0.00,,,0.00,0,Wunderground v.1.15,2013-03-20 08:00:00,
2013-03-20 02:05:00,23.8,21.0,30.02,West,275,0.0,5.0,89,0.00,,,0.00,0,Wunderground v.1.15,2013-03-20 08:05:00,
2013-03-20 02:12:00,23.8,21.0,30.02,West,275,0.0,5.0,89,0.00,,,0.00,0,Wunderground v.1.15,2013-03-20 08:12:00,
2013-03-20 02:18:00,23.7,20.9,30.02,West,275,0.0,5.0,89,0.00,,,0.00,0,Wunderground v.1.15,2013-03-20 08:18:00,
2013-03-20 02:24:00,23.8,21.0,30.02,West,275,0.0,5.0,89,0.00,,,0.00,0,Wunderground v.1.15,2013-03-20 08:24:00,
2013-03-20 02:29:00,23.9,21.4,30.01,West,275,0.0,5.0,90,0.00,,,0.00,0,Wunderground v.1.15,2013-03-20 08:29:00,
2013-03-20 02:34:00,24.0,21.5,30.01,West,275,0.0,5.0,90,0.00,,,0.00,0,Wunderground v.1.15,2013-03-20 08:34:00,
2013-03-20 02:40:00,24.1,21.6,30.00,West,275,0.0,5.0,90,0.00,,,0.00,0,Wunderground v.1.15,2013-03-20 08:40:00,
2013-03-20 02:46:00,24.2,21.7,30.00,West,275,0.0,5.0,90,0.00,,,0.00,0,Wunderground v.1.15,2013-03-20 08:46:00,
2013-03-20 02:52:00,24.3,21.8,29.99,West,275,0.0,5.0,90,0.00,,,0.00,0,Wunderground v.1.15,2013-03-20 08:52:00,
2013-03-20 02:58:00,24.5,22.0,29.99,West,275,0.0,5.0,90,0.00,,,0.00,0,Wunderground v.1.15,2013-03-20 08:58:00,
2013-03-20 03:04:00,24.5,22.2,29.99,West,275,0.0,5.0,91,0.00,,,0.00,0,Wunderground v.1.15,2013-03-20 09:04:00,
2013-03-20 03:10:00,24.7,22.4,29.99,West,275,0.0,5.0,91,0.00,,,0.00,0,Wunderground v.1.15,2013-03-20 09:10:00,
2013-03-20 03:16:00,24.8,22.5,29.99,West,275,0.0,5.0,91,0.00,,,0.00,0,Wunderground v.1.15,2013-03-20 09:16:00,
2013-03-20 03:22:00,24.9,22.6,29.98,West,275,0.0,5.0,91,0.00,,,0.00,0,Wunderground v.1.15,2013-03-20 09:22:00,
2013-03-20 03:27:00,25.1,22.8,29.98,West,275,0.0,5.0,91,0.00,,,0.00,0,Wunderground v.1.15,2013-03-20 09:27:00,
2013-03-20 03:33:00,25.2,22.9,29.98,West,275,0.0,5.0,91,0.00,,,0.00,0,Wunderground v.1.15,2013-03-20 09:33:00,
2013-03-20 03:39:00,25.3,23.0,29.98,West,275,0.0,5.0,91,0.00,,,0.00,0,Wunderground v.1.15,2013-03-20 09:39:00,
2013-03-20 03:45:00,25.4,23.1,29.97,West,275,0.0,5.0,91,0.00,,,0.00,0,Wunderground v.1.15,2013-03-20 09:45:00,
2013-03-20 03:51:00,25.5,23.0,29.97,West,275,0.0,5.0,90,0.00,,,0.00,0,Wunderground v.1.15,2013-03-20 09:51:00,
2013-03-20 03:56:00,25.6,23.1,29.97,West,275,0.0,5.0,90,0.00,,,0.00,0,Wunderground v.1.15,2013-03-20 09:56:00,
2013-03-20 04:02:00,25.7,23.2,29.96,West,275,0.0,5.0,90,0.00,,,0.00,0,Wunderground v.1.15,2013-03-20 10:02:00,
2013-03-20 04:08:00,25.7,23.2,29.96,West,275,0.0,5.0,90,0.00,,,0.00,0,Wunderground v.1.15,2013-03-20 10:08:00,
2013-03-20 04:14:00,25.8,23.3,29.95,West,275,0.0,5.0,90,0.00,,,0.00,0,Wunderground v.1.15,2013-03-20 10:14:00,
2013-03-20 04:20:00,25.9,23.4,29.95,West,275,0.0,5.0,90,0.00,,,0.00,0,Wunderground v.1.15,2013-03-20 10:20:00,
2013-03-20 04:26:00,25.9,23.4,29.94,West,275,0.0,5.0,90,0.00,,,0.00,0,Wunderground v.1.15,2013-03-20 10:26:00,
2013-03-20 04:32:00,26.0,23.5,29.93,West,275,0.0,5.0,90,0.00,,,0.00,0,Wunderground v.1.15,2013-03-20 10:32:00,
2013-03-20 04:38:00,26.1,23.6,29.93,West,275,0.0,5.0,90,0.00,,,0.00,0,Wunderground v.1.15,2013-03-20 10:38:00,
2013-03-20 04:44:00,26.1,23.6,29.93,West,275,0.0,5.0,90,0.00,,,0.00,0,Wunderground v.1.15,2013-03-20 10:44:00,
2013-03-20 04:49:00,26.2,23.4,29.93,West,275,0.0,5.0,89,0.00,,,0.00,0,Wunderground v.1.15,2013-03-20 10:49:00,
2013-03-20 04:54:00,26.2,23.4,29.93,West,275,0.0,5.0,89,0.00,,,0.00,0,Wunderground v.1.15,2013-03-20 10:54:00,
2013-03-20 05:00:00,26.3,23.5,29.92,West,275,0.0,5.0,89,0.00,,,0.00,0,Wunderground v.1.15,2013-03-20 11:00:00,
2013-03-20 05:06:00,26.3,23.5,29.92,West,275,0.0,5.0,89,0.00,,,0.00,0,Wunderground v.1.15,2013-03-20 11:06:00,
2013-03-20 05:12:00,26.4,23.6,29.92,West,275,0.0,5.0,89,0.00,,,0.00,0,Wunderground v.1.15,2013-03-20 11:12:00,
2013-03-20 05:18:00,26.5,23.7,29.91,West,275,0.0,5.0,89,0.00,,,0.00,0,Wunderground v.1.15,2013-03-20 11:18:00,
2013-03-20 05:23:00,26.6,23.8,29.91,West,275,0.0,5.0,89,0.00,,,0.00,0,Wunderground v.1.15,2013-03-20 11:23:00,
2013-03-20 05:29:00,26.6,23.8,29.91,West,275,0.0,5.0,89,0.00,,,0.00,0,Wunderground v.1.15,2013-03-20 11:29:00,
2013-03-20 05:35:00,26.7,23.9,29.91,West,275,0.0,5.0,89,0.00,,,0.00,0,Wunderground v.1.15,2013-03-20 11:35:00,
2013-03-20 05:41:00,26.8,24.0,29.91,West,275,0.0,5.0,89,0.00,,,0.00,0,Wunderground v.1.15,2013-03-20 11:41:00,
2013-03-20 05:47:00,26.8,23.7,29.91,West,275,0.0,5.0,88,0.00,,,0.00,0,Wunderground v.1.15,2013-03-20 11:47:00,
2013-03-20 05:53:00,26.8,23.7,29.91,West,275,0.0,5.0,88,0.00,,,0.00,0,Wunderground v.1.15,2013-03-20 11:53:00,
2013-03-20 05:58:00,26.8,23.7,29.91,West,275,0.0,5.0,88,0.00,,,0.00,0,Wunderground v.1.15,2013-03-20 11:58:00,
2013-03-20 06:04:00,26.8,23.7,29.91,West,275,0.0,5.0,88,0.00,,,0.00,0,Wunderground v.1.15,2013-03-20 12:04:00,
2013-03-20 06:10:00,26.8,24.0,29.90,West,275,0.0,5.0,89,0.00,,,0.00,0,Wunderground v.1.15,2013-03-20 12:10:00,
2013-03-20 06:15:00,26.8,24.0,29.90,West,275,0.0,5.0,89,0.00,,,0.00,0,Wunderground v.1.15,2013-03-20 12:15:00,
2013-03-20 06:22:00,26.9,24.1,29.90,West,275,0.0,5.0,89,0.00,,,0.00,0,Wunderground v.1.15,2013-03-20 12:22:00,
2013-03-20 06:28:00,26.9,24.4,29.90,West,275,0.0,5.0,90,0.00,,,0.00,0,Wunderground v.1.15,2013-03-20 12:28:00,
2013-03-20 06:33:00,26.9,24.4,29.90,West,275,0.0,5.0,90,0.00,,,0.00,0,Wunderground v.1.15,2013-03-20 12:33:00,
2013-03-20 06:39:00,26.9,24.4,29.90,West,275,0.0,5.0,90,0.00,,,0.00,0,Wunderground v.1.15,2013-03-20 12:39:00,
2013-03-20 06:45:00,26.8,24.5,29.89,West,275,0.0,5.0,91,0.00,,,0.00,0,Wunderground v.1.15,2013-03-20 12:45:00,
2013-03-20 06:50:00,26.8,24.5,29.89,West,275,0.0,5.0,91,0.00,,,0.00,0,Wunderground v.1.15,2013-03-20 12:50:00,
2013-03-20 06:55:00,26.8,24.5,29.88,West,275,0.0,5.0,91,0.00,,,0.00,0,Wunderground v.1.15,2013-03-20 12:55:00,
2013-03-20 07:02:00,26.8,24.5,29.87,West,275,0.0,5.0,91,0.00,,,0.00,0,Wunderground v.1.15,2013-03-20 13:02:00,
2013-03-20 07:07:00,26.8,24.5,29.88,West,275,0.0,5.0,91,0.00,,,0.00,0,Wunderground v.1.15,2013-03-20 13:07:00,
2013-03-20 07:12:00,26.8,24.8,29.88,West,275,0.0,5.0,92,0.00,,,0.00,0,Wunderground v.1.15,2013-03-20 13:12:00,
2013-03-20 07:18:00,26.8,24.8,29.88,West,275,0.0,5.0,92,0.00,,,0.00,0,Wunderground v.1.15,2013-03-20 13:18:00,
2013-03-20 07:24:00,26.8,24.8,29.87,West,275,0.0,5.0,92,0.00,,,0.00,0,Wunderground v.1.15,2013-03-20 13:24:00,
2013-03-20 07:30:00,26.8,24.8,29.87,West,275,0.0,5.0,92,0.00,,,0.00,0,Wunderground v.1.15,2013-03-20 13:30:00,
2013-03-20 07:35:00,26.8,24.8,29.87,West,275,0.0,5.0,92,0.00,,,0.00,0,Wunderground v.1.15,2013-03-20 13:35:00,
2013-03-20 07:40:00,26.8,24.8,29.87,West,275,0.0,5.0,92,0.00,,,0.00,0,Wunderground v.1.15,2013-03-20 13:40:00,
2013-03-20 07:46:00,26.8,24.8,29.86,West,275,0.0,5.0,92,0.00,,,0.00,0,Wunderground v.1.15,2013-03-20 13:46:00,
2013-03-20 07:51:00,26.8,24.8,29.86,West,275,0.0,5.0,92,0.00,,,0.00,0,Wunderground v.1.15,2013-03-20 13:51:00,
2013-03-20 07:56:00,26.8,24.8,29.86,West,275,0.0,5.0,92,0.00,,,0.00,0,Wunderground v.1.15,2013-03-20 13:56:00,
2013-03-20 08:02:00,26.8,24.8,29.86,West,275,0.0,5.0,92,0.00,,,0.00,0,Wunderground v.1.15,2013-03-20 14:02:00,
2013-03-20 08:08:00,26.9,25.1,29.85,West,275,0.0,5.0,93,0.00,,,0.00,0,Wunderground v.1.15,2013-03-20 14:08:00,
2013-03-20 08:14:00,26.9,25.1,29.85,West,275,0.0,5.0,93,0.00,,,0.00,0,Wunderground v.1.15,2013-03-20 14:14:00,
2013-03-20 08:20:00,27.0,25.2,29.85,West,275,0.0,5.0,93,0.00,,,0.00,0,Wunderground v.1.15,2013-03-20 14:20:00,
2013-03-20 08:25:00,27.0,25.2,29.84,West,275,0.0,5.0,93,0.00,,,0.00,0,Wunderground v.1.15,2013-03-20 14:25:00,
2013-03-20 08:30:00,27.1,25.3,29.84,West,275,0.0,5.0,93,0.00,,,0.00,5,Wunderground v.1.15,2013-03-20 14:30:00,
2013-03-20 08:36:00,27.1,25.3,29.84,West,275,0.0,5.0,93,0.00,,,0.00,7,Wunderground v.1.15,2013-03-20 14:36:00,
2013-03-20 08:42:00,27.2,25.4,29.84,West,275,0.0,5.0,93,0.00,,,0.00,5,Wunderground v.1.15,2013-03-20 14:42:00,
2013-03-20 08:47:00,27.2,25.4,29.84,West,275,0.0,5.0,93,0.00,,,0.00,5,Wunderground v.1.15,2013-03-20 14:47:00,
2013-03-20 08:53:00,27.3,25.5,29.83,West,275,0.0,5.0,93,0.00,,,0.00,9,Wunderground v.1.15,2013-03-20 14:53:00,
2013-03-20 08:58:00,27.3,25.5,29.84,West,275,0.0,5.0,93,0.00,,,0.00,9,Wunderground v.1.15,2013-03-20 14:58:00,
2013-03-20 09:03:00,27.4,25.6,29.84,West,275,0.0,5.0,93,0.00,,,0.00,7,Wunderground v.1.15,2013-03-20 15:03:00,
2013-03-20 09:09:00,27.4,25.6,29.84,West,275,0.0,5.0,93,0.00,,,0.00,7,Wunderground v.1.15,2013-03-20 15:09:00,
2013-03-20 09:14:00,27.4,25.6,29.84,West,275,0.0,5.0,93,0.00,,,0.00,7,Wunderground v.1.15,2013-03-20 15:14:00,
2013-03-20 09:19:00,27.4,25.6,29.83,West,275,0.0,5.0,93,0.00,,,0.00,7,Wunderground v.1.15,2013-03-20 15:19:00,
2013-03-20 09:25:00,27.5,25.7,29.83,West,275,0.0,5.0,93,0.00,,,0.00,11,Wunderground v.1.15,2013-03-20 15:25:00,
2013-03-20 09:30:00,27.5,25.7,29.83,West,275,0.0,5.0,93,0.00,,,0.00,16,Wunderground v.1.15,2013-03-20 15:30:00,
2013-03-20 09:36:00,27.6,25.8,29.83,West,275,0.0,5.0,93,0.00,,,0.00,16,Wunderground v.1.15,2013-03-20 15:36:00,
2013-03-20 09:42:00,27.8,26.3,29.82,West,275,0.0,5.0,94,0.00,,,0.00,23,Wunderground v.1.15,2013-03-20 15:42:00,
2013-03-20 09:47:00,27.9,26.4,29.83,West,275,0.0,5.0,94,0.00,,,0.00,19,Wunderground v.1.15,2013-03-20 15:47:00,
2013-03-20 09:52:00,28.1,26.6,29.82,West,275,0.0,5.0,94,0.00,,,0.00,21,Wunderground v.1.15,2013-03-20 15:52:00,
2013-03-20 09:58:00,28.3,26.8,29.82,West,275,0.0,5.0,94,0.00,,,0.00,21,Wunderground v.1.15,2013-03-20 15:58:00,
2013-03-20 10:04:00,28.5,27.0,29.82,West,275,0.0,5.0,94,0.00,,,0.00,21,Wunderground v.1.15,2013-03-20 16:04:00,
2013-03-20 10:10:00,28.7,27.2,29.81,West,275,0.0,5.0,94,0.00,,,0.00,21,Wunderground v.1.15,2013-03-20 16:10:00,
2013-03-20 10:16:00,28.8,27.3,29.80,West,275,0.0,5.0,94,0.00,,,0.00,30,Wunderground v.1.15,2013-03-20 16:16:00,
2013-03-20 10:21:00,28.9,27.4,29.80,West,275,0.0,5.0,94,0.00,,,0.00,39,Wunderground v.1.15,2013-03-20 16:21:00,
2013-03-20 10:27:00,29.2,27.7,29.80,West,275,0.0,5.0,94,0.00,,,0.00,67,Wunderground v.1.15,2013-03-20 16:27:00,
2013-03-20 10:33:00,29.6,28.1,29.80,West,277,0.0,5.0,94,0.00,,,0.00,33,Wunderground v.1.15,2013-03-20 16:33:00,
2013-03-20 10:38:00,30.0,28.5,29.80,West,277,0.0,5.0,94,0.00,,,0.00,23,Wunderground v.1.15,2013-03-20 16:38:00,
2013-03-20 10:44:00,30.2,28.7,29.80,West,277,0.0,5.0,94,0.00,,,0.00,23,Wunderground v.1.15,2013-03-20 16:44:00,
2013-03-20 10:49:00,30.4,28.9,29.79,West,277,0.0,5.0,94,0.00,,,0.00,28,Wunderground v.1.15,2013-03-20 16:49:00,
2013-03-20 10:54:00,30.5,29.0,29.79,West,277,0.0,5.0,94,0.00,,,0.00,33,Wunderground v.1.15,2013-03-20 16:54:00,
2013-03-20 11:00:00,30.7,29.2,29.79,West,277,0.0,5.0,94,0.00,,,0.00,53,Wunderground v.1.15,2013-03-20 17:00:00,
2013-03-20 11:07:00,31.1,29.6,29.79,West,277,0.0,5.0,94,0.00,,,0.00,60,Wunderground v.1.15,2013-03-20 17:07:00,
2013-03-20 11:13:00,31.6,30.3,29.79,West,277,0.0,5.0,95,0.00,,,0.00,91,Wunderground v.1.15,2013-03-20 17:13:00,
2013-03-20 11:18:00,32.1,30.6,29.78,ENE,76,0.0,5.0,94,0.00,,,0.00,135,Wunderground v.1.15,2013-03-20 17:18:00,
2013-03-20 11:23:00,32.6,31.1,29.78,ENE,76,0.0,5.0,94,0.00,,,0.00,109,Wunderground v.1.15,2013-03-20 17:23:00,
2013-03-20 11:28:00,33.1,31.6,29.77,ENE,76,0.0,5.0,94,0.00,,,0.00,174,Wunderground v.1.15,2013-03-20 17:28:00,
2013-03-20 11:34:00,33.5,31.7,29.78,ENE,76,0.0,5.0,93,0.00,,,0.00,149,Wunderground v.1.15,2013-03-20 17:34:00,
2013-03-20 11:40:00,33.9,32.1,29.77,ENE,76,1.0,1.0,93,0.00,,,0.00,158,Wunderground v.1.15,2013-03-20 17:40:00,
2013-03-20 11:47:00,34.4,32.6,29.77,ENE,76,0.0,5.0,93,0.00,,,0.00,165,Wunderground v.1.15,2013-03-20 17:47:00,
2013-03-20 11:52:00,34.6,32.5,29.77,ENE,75,0.0,5.0,92,0.00,,,0.00,113,Wunderground v.1.15,2013-03-20 17:52:00,
2013-03-20 11:58:00,34.8,32.4,29.76,ENE,76,0.0,5.0,91,0.00,,,0.00,141,Wunderground v.1.15,2013-03-20 17:58:00,
2013-03-20 12:04:00,35.2,32.8,29.76,ENE,76,0.0,5.0,91,0.00,,,0.00,497,Wunderground v.1.15,2013-03-20 18:04:00,
2013-03-20 12:10:00,36.2,34.1,29.75,ENE,76,0.0,5.0,92,0.00,,,0.00,461,Wunderground v.1.15,2013-03-20 18:10:00,
2013-03-20 12:16:00,37.4,34.5,29.75,ENE,76,0.0,5.0,89,0.00,,,0.00,271,Wunderground v.1.15,2013-03-20 18:16:00,
2013-03-20 12:22:00,37.9,34.4,29.75,ENE,76,0.0,5.0,87,0.00,,,0.00,278,Wunderground v.1.15,2013-03-20 18:22:00,
2013-03-20 12:28:00,38.3,34.5,29.75,ENE,75,0.0,5.0,86,0.00,,,0.00,176,Wunderground v.1.15,2013-03-20 18:28:00,
2013-03-20 12:33:00,38.3,34.2,29.75,ENE,76,0.0,5.0,85,0.00,,,0.00,176,Wunderground v.1.15,2013-03-20 18:33:00,
2013-03-20 12:39:00,38.7,34.3,29.74,ENE,76,0.0,5.0,84,0.00,,,0.00,113,Wunderground v.1.15,2013-03-20 18:39:00,
2013-03-20 12:44:00,38.4,34.0,29.75,ENE,75,0.0,5.0,84,0.00,,,0.00,79,Wunderground v.1.15,2013-03-20 18:44:00,
2013-03-20 12:49:00,38.2,34.1,29.74,ENE,76,0.0,5.0,85,0.00,,,0.01,67,Wunderground v.1.15,2013-03-20 18:49:00,
2013-03-20 12:55:00,38.1,34.0,29.74,ENE,75,0.0,5.0,85,0.00,,,0.01,58,Wunderground v.1.15,2013-03-20 18:55:00,
2013-03-20 13:02:00,37.8,34.0,29.74,ENE,76,0.0,5.0,86,0.00,,,0.01,70,Wunderground v.1.15,2013-03-20 19:02:00,
2013-03-20 13:07:00,37.7,34.2,29.73,ENE,75,0.0,5.0,87,0.04,,,0.02,77,Wunderground v.1.15,2013-03-20 19:07:00,
2013-03-20 13:13:00,37.5,34.3,29.73,ENE,76,0.0,5.0,88,0.08,,,0.03,105,Wunderground v.1.15,2013-03-20 19:13:00,
2013-03-20 13:19:00,37.4,34.5,29.73,ENE,76,0.0,5.0,89,0.12,,,0.04,109,Wunderground v.1.15,2013-03-20 19:19:00,
2013-03-20 13:25:00,37.4,34.7,29.72,ENE,76,0.0,5.0,90,0.30,,,0.09,125,Wunderground v.1.15,2013-03-20 19:25:00,
2013-03-20 13:30:00,37.2,34.5,29.72,ENE,76,0.0,5.0,90,0.22,,,0.12,141,Wunderground v.1.15,2013-03-20 19:30:00,
2013-03-20 13:36:00,37.2,34.8,29.72,ENE,76,0.0,5.0,91,0.13,,,0.13,139,Wunderground v.1.15,2013-03-20 19:36:00,
2013-03-20 13:42:00,37.4,35.0,29.72,ENE,76,0.0,5.0,91,0.10,,,0.14,97,Wunderground v.1.15,2013-03-20 19:42:00,
2013-03-20 13:47:00,37.5,35.1,29.71,ENE,76,0.0,5.0,91,0.08,,,0.14,139,Wunderground v.1.15,2013-03-20 19:47:00,
2013-03-20 13:52:00,37.7,35.3,29.71,ENE,76,0.0,5.0,91,0.07,,,0.15,130,Wunderground v.1.15,2013-03-20 19:52:00,
2013-03-20 13:58:00,37.8,35.4,29.71,ENE,75,0.0,5.0,91,0.07,,,0.15,114,Wunderground v.1.15,2013-03-20 19:58:00,
2013-03-20 14:04:00,38.0,35.6,29.70,ENE,76,0.0,5.0,91,0.07,,,0.16,130,Wunderground v.1.15,2013-03-20 20:04:00,
2013-03-20 14:09:00,38.1,35.7,29.70,ENE,76,0.0,5.0,91,0.05,,,0.16,165,Wunderground v.1.15,2013-03-20 20:09:00,
2013-03-20 14:14:00,38.4,36.0,29.70,ENE,76,0.0,5.0,91,0.05,,,0.17,160,Wunderground v.1.15,2013-03-20 20:14:00,
2013-03-20 14:20:00,38.7,36.3,29.70,ENE,76,0.0,5.0,91,0.06,,,0.18,134,Wunderground v.1.15,2013-03-20 20:20:00,
2013-03-20 14:26:00,39.0,36.6,29.69,ENE,76,0.0,5.0,91,0.06,,,0.18,97,Wunderground v.1.15,2013-03-20 20:26:00,
2013-03-20 14:32:00,39.1,36.7,29.69,ENE,76,0.0,5.0,91,0.05,,,0.19,139,Wunderground v.1.15,2013-03-20 20:32:00,
2013-03-20 14:38:00,39.2,36.8,29.69,ENE,76,0.0,5.0,91,0.09,,,0.19,169,Wunderground v.1.15,2013-03-20 20:38:00,
2013-03-20 14:44:00,39.3,37.2,29.69,SSW,208,1.0,5.0,92,0.09,,,0.20,151,Wunderground v.1.15,2013-03-20 20:44:00,
2013-03-20 14:49:00,39.4,37.3,29.69,SSW,207,1.0,5.0,92,0.05,,,0.20,185,Wunderground v.1.15,2013-03-20 20:49:00,
2013-03-20 14:55:00,39.7,37.6,29.68,SSW,208,0.0,5.0,92,0.05,,,0.21,165,Wunderground v.1.15,2013-03-20 20:55:00,
2013-03-20 15:02:00,40.2,38.1,29.67,NE,37,1.0,5.0,92,0.05,,,0.21,174,Wunderground v.1.15,2013-03-20 21:02:00,
2013-03-20 15:08:00,40.6,38.5,29.66,NE,38,0.0,5.0,92,0.04,,,0.21,153,Wunderground v.1.15,2013-03-20 21:08:00,
2013-03-20 15:14:00,40.9,39.0,29.66,NE,37,0.0,5.0,93,0.00,,,0.21,220,Wunderground v.1.15,2013-03-20 21:14:00,
2013-03-20 15:20:00,41.1,39.0,29.65,NE,38,0.0,5.0,92,0.00,,,0.22,218,Wunderground v.1.15,2013-03-20 21:20:00,
2013-03-20 15:25:00,41.3,39.2,29.65,NE,38,0.0,5.0,92,0.00,,,0.22,269,Wunderground v.1.15,2013-03-20 21:25:00,
2013-03-20 15:31:00,41.8,39.6,29.64,NE,38,0.0,5.0,92,0.00,,,0.22,190,Wunderground v.1.15,2013-03-20 21:31:00,
2013-03-20 15:36:00,42.1,39.7,29.64,NNW,338,0.0,5.0,91,0.00,,,0.22,204,Wunderground v.1.15,2013-03-20 21:36:00,
2013-03-20 15:42:00,42.4,39.7,29.63,NW,306,0.0,5.0,90,0.00,,,0.22,192,Wunderground v.1.15,2013-03-20 21:42:00,
2013-03-20 15:48:00,42.6,39.6,29.63,WNW,301,0.0,5.0,89,0.00,,,0.22,146,Wunderground v.1.15,2013-03-20 21:48:00,
2013-03-20 15:53:00,42.5,39.5,29.62,WNW,301,0.0,5.0,89,0.00,,,0.23,183,Wunderground v.1.15,2013-03-20 21:53:00,
2013-03-20 15:59:00,42.7,39.7,29.61,SW,222,0.0,5.0,89,0.00,,,0.23,149,Wunderground v.1.15,2013-03-20 21:59:00,
2013-03-20 16:04:00,42.7,39.4,29.62,WNW,287,0.0,5.0,88,0.00,,,0.23,142,Wunderground v.1.15,2013-03-20 22:04:00,
2013-03-20 16:10:00,42.7,39.4,29.61,West,279,0.0,5.0,88,0.00,,,0.23,169,Wunderground v.1.15,2013-03-20 22:10:00,
2013-03-20 16:15:00,42.6,39.3,29.61,West,277,1.0,5.0,88,0.00,,,0.23,178,Wunderground v.1.15,2013-03-20 22:15:00,
2013-03-20 16:22:00,42.5,39.2,29.61,WSW,240,1.0,5.0,88,0.00,,,0.23,123,Wunderground v.1.15,2013-03-20 22:22:00,
2013-03-20 16:27:00,42.4,39.1,29.61,WSW,250,1.0,5.0,88,0.00,,,0.23,172,Wunderground v.1.15,2013-03-20 22:27:00,
2013-03-20 16:33:00,42.3,39.0,29.61,West,263,2.0,5.0,88,0.00,,,0.23,158,Wunderground v.1.15,2013-03-20 22:33:00,
2013-03-20 16:39:00,42.3,39.3,29.61,West,259,2.0,5.0,89,0.00,,,0.23,155,Wunderground v.1.15,2013-03-20 22:39:00,
2013-03-20 16:44:00,42.3,39.3,29.61,West,267,2.0,5.0,89,0.00,,,0.23,135,Wunderground v.1.15,2013-03-20 22:44:00,
2013-03-20 16:50:00,42.3,39.3,29.61,NW,311,2.0,5.0,89,0.00,,,0.23,128,Wunderground v.1.15,2013-03-20 22:50:00,
2013-03-20 16:57:00,42.2,38.9,29.61,West,263,1.0,5.0,88,0.00,,,0.23,63,Wunderground v.1.15,2013-03-20 22:57:00,
2013-03-20 17:03:00,42.1,38.8,29.60,NNW,335,2.0,5.0,88,0.00,,,0.24,53,Wunderground v.1.15,2013-03-20 23:03:00,
2013-03-20 17:09:00,42.0,39.0,29.60,NNW,335,1.0,5.0,89,0.14,,,0.26,39,Wunderground v.1.15,2013-03-20 23:09:00,
2013-03-20 17:15:00,41.7,38.7,29.60,SW,227,0.0,5.0,89,0.13,,,0.27,26,Wunderground v.1.15,2013-03-20 23:15:00,
2013-03-20 17:22:00,41.1,38.1,29.60,West,269,1.0,5.0,89,0.07,,,0.27,47,Wunderground v.1.15,2013-03-20 23:22:00,
2013-03-20 17:28:00,40.4,37.4,29.60,West,268,2.0,5.0,89,0.04,,,0.27,49,Wunderground v.1.15,2013-03-20 23:28:00,
2013-03-20 17:34:00,39.7,37.0,29.59,West,268,2.0,5.0,90,0.00,,,0.27,56,Wunderground v.1.15,2013-03-20 23:34:00,
2013-03-20 17:39:00,39.5,36.8,29.59,West,268,1.0,5.0,90,0.00,,,0.27,83,Wunderground v.1.15,2013-03-20 23:39:00,
2013-03-20 17:45:00,38.9,36.5,29.59,West,268,1.0,5.0,91,0.00,,,0.27,53,Wunderground v.1.15,2013-03-20 23:45:00,
2013-03-20 17:52:00,38.6,36.2,29.59,West,259,1.0,5.0,91,0.00,,,0.27,14,Wunderground v.1.15,2013-03-20 23:52:00,
2013-03-20 17:58:00,38.6,36.5,29.60,West,259,0.0,5.0,92,0.00,,,0.27,9,Wunderground v.1.15,2013-03-20 23:58:00,
2013-03-20 18:04:00,38.4,36.3,29.60,West,259,1.0,5.0,92,0.19,,,0.29,0,Wunderground v.1.15,2013-03-21 00:04:00,
2013-03-20 18:09:00,38.2,36.4,29.61,West,271,2.0,6.0,93,0.69,,,0.32,0,Wunderground v.1.15,2013-03-21 00:09:00,
2013-03-20 18:14:00,38.8,37.2,29.62,WNW,298,5.0,9.0,94,0.51,,,0.36,0,Wunderground v.1.15,2013-03-21 00:14:00,
2013-03-20 18:20:00,39.1,37.5,29.61,NW,324,5.0,5.0,94,0.26,,,0.39,0,Wunderground v.1.15,2013-03-21 00:20:00,
2013-03-20 18:26:00,39.3,37.4,29.62,NE,47,3.0,8.0,93,0.07,,,0.39,0,Wunderground v.1.15,2013-03-21 00:26:00,
2013-03-20 18:32:00,39.7,37.8,29.62,NE,42,6.0,6.0,93,0.04,,,0.39,0,Wunderground v.1.15,2013-03-21 00:32:00,
2013-03-20 18:37:00,39.7,37.8,29.62,South,190,5.0,6.0,93,0.00,,,0.39,5,Wunderground v.1.15,2013-03-21 00:37:00,
2013-03-20 18:43:00,39.7,37.8,29.63,SE,132,4.0,7.0,93,0.00,,,0.39,0,Wunderground v.1.15,2013-03-21 00:43:00,
2013-03-20 18:49:00,39.7,37.6,29.62,SE,129,3.0,8.0,92,0.00,,,0.39,0,Wunderground v.1.15,2013-03-21 00:49:00,
2013-03-20 18:55:00,39.6,37.5,29.62,NE,46,2.0,5.0,92,0.00,,,0.39,0,Wunderground v.1.15,2013-03-21 00:55:00,
2013-03-20 19:01:00,39.5,37.4,29.62,SSW,203,2.0,5.0,92,0.00,,,0.39,5,Wunderground v.1.15,2013-03-21 01:01:00,
2013-03-20 19:07:00,39.4,37.3,29.62,SSW,203,1.0,5.0,92,0.00,,,0.39,5,Wunderground v.1.15,2013-03-21 01:07:00,
2013-03-20 19:12:00,39.2,37.1,29.62,SSW,204,1.0,5.0,92,0.00,,,0.39,5,Wunderground v.1.15,2013-03-21 01:12:00,
2013-03-20 19:17:00,39.0,36.9,29.62,NE,55,1.0,5.0,92,0.00,,,0.39,7,Wunderground v.1.15,2013-03-21 01:17:00,
2013-03-20 19:23:00,38.9,36.8,29.62,SSE,157,1.0,7.0,92,0.00,,,0.39,5,Wunderground v.1.15,2013-03-21 01:23:00,
2013-03-20 19:28:00,38.9,36.8,29.62,SE,132,2.0,7.0,92,0.00,,,0.39,0,Wunderground v.1.15,2013-03-21 01:28:00,
2013-03-20 19:33:00,39.1,36.7,29.62,SW,233,2.0,5.0,91,0.00,,,0.39,0,Wunderground v.1.15,2013-03-21 01:33:00,
2013-03-20 19:39:00,39.0,36.6,29.62,SSW,211,1.0,5.0,91,0.00,,,0.39,0,Wunderground v.1.15,2013-03-21 01:39:00,
2013-03-20 19:45:00,38.8,36.4,29.61,South,172,1.0,5.0,91,0.00,,,0.39,0,Wunderground v.1.15,2013-03-21 01:45:00,
2013-03-20 19:50:00,38.7,36.3,29.63,West,270,1.0,5.0,91,0.00,,,0.39,0,Wunderground v.1.15,2013-03-21 01:50:00,
2013-03-20 19:55:00,38.4,36.0,29.64,WSW,252,1.0,5.0,91,0.00,,,0.39,0,Wunderground v.1.15,2013-03-21 01:55:00,
2013-03-20 20:00:00,38.1,35.7,29.65,West,265,1.0,1.0,91,0.00,,,0.39,0,Wunderground v.1.15,2013-03-21 02:00:00,
2013-03-20 20:06:00,37.9,35.2,29.66,East,90,2.0,6.0,90,0.00,,,0.39,0,Wunderground v.1.15,2013-03-21 02:06:00,
2013-03-20 20:11:00,38.1,35.1,29.66,South,177,3.0,5.0,89,0.00,,,0.39,0,Wunderground v.1.15,2013-03-21 02:11:00,
2013-03-20 20:17:00,38.4,34.9,29.67,East,99,4.0,5.0,87,0.00,,,0.39,0,Wunderground v.1.15,2013-03-21 02:17:00,
2013-03-20 20:22:00,38.9,34.8,29.67,SSW,211,5.0,7.0,85,0.00,,,0.39,0,Wunderground v.1.15,2013-03-21 02:22:00,
2013-03-20 20:27:00,39.3,34.9,29.67,NE,34,6.0,7.0,84,0.00,,,0.39,0,Wunderground v.1.15,2013-03-21 02:27:00,
2013-03-20 20:32:00,39.4,35.3,29.68,NE,34,3.0,5.0,85,0.00,,,0.39,0,Wunderground v.1.15,2013-03-21 02:32:00,
2013-03-20 20:37:00,39.2,35.1,29.68,SSE,161,2.0,8.0,85,0.00,,,0.39,0,Wunderground v.1.15,2013-03-21 02:37:00,
2013-03-20 20:43:00,39.2,34.8,29.68,SSW,207,3.0,5.0,84,0.00,,,0.39,0,Wunderground v.1.15,2013-03-21 02:43:00,
2013-03-20 20:48:00,39.1,35.0,29.68,NNE,33,2.0,5.0,85,0.00,,,0.39,0,Wunderground v.1.15,2013-03-21 02:48:00,
2013-03-20 20:54:00,38.9,34.5,29.68,WSW,237,1.0,5.0,84,0.00,,,0.39,0,Wunderground v.1.15,2013-03-21 02:54:00,
2013-03-20 21:00:00,38.7,34.9,29.68,SSE,163,1.0,5.0,86,0.00,,,0.39,0,Wunderground v.1.15,2013-03-21 03:00:00,
2013-03-20 21:05:00,38.4,34.3,29.69,South,184,3.0,7.0,85,0.00,,,0.39,0,Wunderground v.1.15,2013-03-21 03:05:00,
2013-03-20 21:12:00,38.2,33.5,29.69,SW,229,4.0,6.0,83,0.00,,,0.39,0,Wunderground v.1.15,2013-03-21 03:12:00,
2013-03-20 21:17:00,38.2,33.5,29.69,SSE,159,3.0,8.0,83,0.00,,,0.39,0,Wunderground v.1.15,2013-03-21 03:17:00,
2013-03-20 21:23:00,38.1,33.4,29.68,NW,312,4.0,13.0,83,0.00,,,0.40,0,Wunderground v.1.15,2013-03-21 03:23:00,
2013-03-20 21:28:00,38.1,33.4,29.68,ESE,108,5.0,13.0,83,0.00,,,0.40,0,Wunderground v.1.15,2013-03-21 03:28:00,
2013-03-20 21:33:00,38.0,33.3,29.68,South,176,4.0,5.0,83,0.00,,,0.40,0,Wunderground v.1.15,2013-03-21 03:33:00,
2013-03-20 21:38:00,38.0,33.6,29.68,SSW,192,2.0,5.0,84,0.00,,,0.41,0,Wunderground v.1.15,2013-03-21 03:38:00,
2013-03-20 21:43:00,37.8,33.1,29.68,East,90,3.0,8.0,83,0.00,,,0.41,0,Wunderground v.1.15,2013-03-21 03:43:00,
2013-03-20 21:49:00,37.9,33.2,29.68,SW,220,3.0,8.0,83,0.00,,,0.41,0,Wunderground v.1.15,2013-03-21 03:49:00,
2013-03-20 21:55:00,37.8,33.1,29.68,WSW,246,3.0,11.0,83,0.00,,,0.41,0,Wunderground v.1.15,2013-03-21 03:55:00,
2013-03-20 22:00:00,37.8,33.1,29.68,SE,144,3.0,3.0,83,0.00,,,0.41,0,Wunderground v.1.15,2013-03-21 04:00:00,
2013-03-20 22:02:00,37.8,33.1,29.68,WSW,248,3.0,5.0,83,0.00,,,0.41,0,Wunderground v.1.15,2013-03-21 04:02:00,
2013-03-20 22:07:00,37.7,33.3,29.68,SE,138,1.0,5.0,84,0.00,,,0.41,0,Wunderground v.1.15,2013-03-21 04:07:00,
2013-03-20 22:12:00,37.5,33.4,29.68,SSW,205,2.0,5.0,85,0.00,,,0.41,0,Wunderground v.1.15,2013-03-21 04:12:00,
2013-03-20 22:17:00,37.4,33.3,29.68,NW,304,2.0,5.0,85,0.00,,,0.41,0,Wunderground v.1.15,2013-03-21 04:17:00,
2013-03-20 22:22:00,37.2,33.4,29.69,SSW,195,2.0,5.0,86,0.00,,,0.41,0,Wunderground v.1.15,2013-03-21 04:22:00,
2013-03-20 22:27:00,37.0,32.9,29.69,SSW,198,3.0,9.0,85,0.00,,,0.41,0,Wunderground v.1.15,2013-03-21 04:27:00,
2013-03-20 22:33:00,37.0,32.9,29.69,ESE,111,2.0,5.0,85,0.00,,,0.41,0,Wunderground v.1.15,2013-03-21 04:33:00,
2013-03-20 22:38:00,36.9,32.8,29.69,West,260,2.0,7.0,85,0.00,,,0.41,0,Wunderground v.1.15,2013-03-21 04:38:00,
2013-03-20 22:44:00,37.1,32.1,29.70,West,267,5.0,16.0,82,0.00,,,0.42,0,Wunderground v.1.15,2013-03-21 04:44:00,
2013-03-20 22:49:00,37.4,32.1,29.69,South,172,6.0,16.0,81,0.00,,,0.42,0,Wunderground v.1.15,2013-03-21 04:49:00,
2013-03-20 22:54:00,37.3,32.6,29.70,South,178,6.0,12.0,83,0.00,,,0.42,0,Wunderground v.1.15,2013-03-21 04:54:00,
2013-03-20 22:59:00,36.9,32.8,29.71,WSW,246,7.0,16.0,85,0.00,,,0.42,0,Wunderground v.1.15,2013-03-21 04:59:00,
2013-03-20 23:04:00,36.7,32.6,29.70,West,264,7.0,9.0,85,0.00,,,0.42,0,Wunderground v.1.15,2013-03-21 05:04:00,
2013-03-20 23:10:00,36.4,32.6,29.70,East,98,5.0,5.0,86,0.00,,,0.42,0,Wunderground v.1.15,2013-03-21 05:10:00,
2013-03-20 23:16:00,36.2,32.7,29.70,SSW,195,3.0,12.0,87,0.00,,,0.42,0,Wunderground v.1.15,2013-03-21 05:16:00,
2013-03-20 23:22:00,36.1,32.6,29.70,WNW,292,4.0,5.0,87,0.00,,,0.42,0,Wunderground v.1.15,2013-03-21 05:22:00,
2013-03-20 23:27:00,36.1,32.6,29.69,North,350,5.0,8.0,87,0.00,,,0.42,0,Wunderground v.1.15,2013-03-21 05:27:00,
2013-03-20 23:32:00,36.1,32.3,29.69,South,191,5.0,7.0,86,0.00,,,0.42,0,Wunderground v.1.15,2013-03-21 05:32:00,
2013-03-20 23:38:00,36.1,32.0,29.69,SSE,164,4.0,12.0,85,0.00,,,0.42,0,Wunderground v.1.15,2013-03-21 05:38:00,
2013-03-20 23:43:00,36.2,31.5,29.69,SSE,167,4.0,8.0,83,0.00,,,0.42,0,Wunderground v.1.15,2013-03-21 05:43:00,
2013-03-20 23:48:00,36.4,31.7,29.69,WNW,303,4.0,8.0,83,0.00,,,0.42,0,Wunderground v.1.15,2013-03-21 05:48:00,
2013-03-20 23:54:00,36.5,31.5,29.69,SSE,165,4.0,11.0,82,0.00,,,0.42,0,Wunderground v.1.15,2013-03-21 05:54:00,
2013-03-20 23:59:00,36.6,31.6,29.69,SSE,152,6.0,14.0,82,0.00,,,0.42,0,Wunderground v.1.15,2013-03-21 05:59:00,